Time;durP1;ratioP1;P1;durP2;ratioP2;P2;SDS_P1;SDS_P2;PMS_P1;PMS_P2;Temp;Humidity;BMP_temperature;BMP_pressure;BME280_temperature;BME280_humidity;BME280_pressure;Samples;Min_cycle;Max_cycle;Signal;HPM_P1;HPM_P2
2023/06/03 00:01:11;;;;;;;4.88;2.17;;;10.90;99.90;;;;;;5116484;27;20440;-89
2023/06/03 00:03:39;;;;;;;3.28;1.73;;;10.80;99.90;;;;;;5116044;27;20476;-90
2023/06/03 00:06:05;;;;;;;3.57;1.57;;;10.80;99.90;;;;;;5116256;27;20485;-90
2023/06/03 00:08:31;;;;;;;5.93;2.05;;;10.80;99.90;;;;;;5115482;27;20546;-90
2023/06/03 00:10:57;;;;;;;4.47;1.70;;;10.90;99.90;;;;;;5116273;27;20914;-90
2023/06/03 00:13:23;;;;;;;4.47;1.90;;;10.70;99.90;;;;;;5115305;27;20408;-89
2023/06/03 00:15:48;;;;;;;3.60;1.63;;;10.70;99.90;;;;;;5115870;27;20411;-90
2023/06/03 00:18:15;;;;;;;4.20;1.90;;;10.60;99.90;;;;;;5115462;27;20456;-91
2023/06/03 00:20:47;;;;;;;6.32;1.92;;;10.60;99.90;;;;;;5115649;27;20446;-90
2023/06/03 00:23:16;;;;;;;4.18;1.60;;;10.50;99.90;;;;;;5115302;27;20416;-90
2023/06/03 00:25:41;;;;;;;3.38;1.58;;;10.50;99.90;;;;;;5115333;27;20397;-90
2023/06/03 00:28:07;;;;;;;5.07;1.48;;;10.50;99.90;;;;;;5115136;27;20488;-89
2023/06/03 00:30:33;;;;;;;3.00;1.50;;;10.40;99.90;;;;;;5114789;27;20419;-89
2023/06/03 00:32:59;;;;;;;4.50;1.67;;;10.40;99.90;;;;;;5115861;27;20845;-89
2023/06/03 00:35:25;;;;;;;3.65;1.40;;;10.30;99.90;;;;;;5115217;27;20397;-89
2023/06/03 00:37:51;;;;;;;3.42;1.80;;;10.40;99.90;;;;;;5115507;27;20397;-89
2023/06/03 00:40:17;;;;;;;3.67;1.42;;;10.30;99.90;;;;;;5115170;27;20412;-88
2023/06/03 00:42:43;;;;;;;4.20;1.58;;;10.10;99.90;;;;;;5115178;27;20408;-89
2023/06/03 00:45:09;;;;;;;4.10;1.50;;;10.10;99.90;;;;;;5115364;27;20405;-88
2023/06/03 00:47:34;;;;;;;4.20;1.67;;;10.10;99.90;;;;;;5114091;27;20480;-89
2023/06/03 00:50:01;;;;;;;3.97;1.52;;;10.00;99.90;;;;;;5115078;27;20461;-89
2023/06/03 00:52:27;;;;;;;3.35;1.73;;;10.00;99.90;;;;;;5114301;27;20494;-89
2023/06/03 00:54:53;;;;;;;3.05;1.45;;;9.90;99.90;;;;;;5115083;27;20849;-89
2023/06/03 00:57:21;;;;;;;5.22;1.63;;;9.90;99.90;;;;;;5115120;27;20404;-89
2023/06/03 00:59:47;;;;;;;3.33;1.63;;;9.80;99.90;;;;;;5114992;27;20407;-89
2023/06/03 01:02:13;;;;;;;5.90;1.63;;;9.80;99.90;;;;;;5114953;27;20409;-89
2023/06/03 01:04:42;;;;;;;3.35;1.75;;;10.10;99.90;;;;;;5114394;27;20508;-89
2023/06/03 01:07:14;;;;;;;3.00;1.33;;;9.80;99.90;;;;;;5115109;27;20442;-90
2023/06/03 01:10:15;;;;;;;4.43;1.60;;;9.80;99.90;;;;;;5114168;27;20420;-90
2023/06/03 01:13:02;;;;;;;2.80;1.70;;;9.80;99.90;;;;;;5114952;27;20908;-89
2023/06/03 01:15:29;;;;;;;4.10;1.40;;;9.90;99.90;;;;;;5114743;27;20453;-90
2023/06/03 01:17:59;;;;;;;3.03;1.30;;;9.90;99.90;;;;;;5131624;27;20427;-89
2023/06/03 01:20:29;;;;;;;2.83;1.40;;;9.90;99.90;;;;;;5114813;27;20515;-91
2023/06/03 01:23:11;;;;;;;4.10;1.63;;;9.90;99.90;;;;;;5114296;27;20728;-89
2023/06/03 01:25:40;;;;;;;3.00;1.15;;;10.00;99.90;;;;;;5114335;27;20918;-89
2023/06/03 01:28:05;;;;;;;3.10;1.30;;;10.00;99.90;;;;;;5114509;27;20437;-89
2023/06/03 01:30:31;;;;;;;4.07;1.58;;;10.00;99.90;;;;;;5113935;27;20397;-88
2023/06/03 01:32:58;;;;;;;2.72;1.10;;;10.40;99.90;;;;;;5114168;27;20416;-89
2023/06/03 01:35:24;;;;;;;2.65;1.02;;;10.00;99.90;;;;;;5113395;27;20392;-89
2023/06/03 01:37:51;;;;;;;3.03;1.30;;;10.00;99.90;;;;;;5114305;27;20721;-88
2023/06/03 01:40:17;;;;;;;4.20;1.30;;;10.00;99.90;;;;;;5114264;27;20401;-88
2023/06/03 01:42:43;;;;;;;3.17;1.50;;;10.00;99.90;;;;;;5114128;27;20389;-89
2023/06/03 01:45:09;;;;;;;2.38;1.17;;;9.90;99.90;;;;;;5114276;27;20413;-90
2023/06/03 01:47:35;;;;;;;3.80;1.30;;;9.80;99.90;;;;;;5113760;27;20476;-89
2023/06/03 01:50:00;;;;;;;2.80;1.10;;;9.70;99.90;;;;;;5113963;27;20847;-89
2023/06/03 01:52:26;;;;;;;3.00;1.10;;;9.70;99.90;;;;;;5113406;27;20405;-89
2023/06/03 01:54:52;;;;;;;2.17;1.07;;;9.60;99.90;;;;;;5114251;27;20402;-89
2023/06/03 01:57:18;;;;;;;2.75;0.90;;;9.50;99.90;;;;;;5113415;27;20508;-89
2023/06/03 01:59:43;;;;;;;3.35;1.08;;;9.40;99.90;;;;;;5130922;27;20907;-89
2023/06/03 02:02:09;;;;;;;3.67;1.07;;;9.30;99.90;;;;;;5112367;27;20899;-89
2023/06/03 02:04:34;;;;;;;2.73;0.97;;;9.20;99.90;;;;;;5113674;27;20742;-89
2023/06/03 02:07:00;;;;;;;4.10;1.00;;;9.00;99.90;;;;;;5130723;27;20756;-90
2023/06/03 02:09:28;;;;;;;2.70;0.90;;;9.00;99.90;;;;;;5113187;27;20403;-88
2023/06/03 02:11:55;;;;;;;3.55;0.80;;;9.20;99.90;;;;;;5113656;27;20408;-89
2023/06/03 02:14:20;;;;;;;3.63;1.27;;;8.90;99.90;;;;;;5113203;27;20401;-89
2023/06/03 02:16:48;;;;;;;2.70;0.90;;;8.90;99.90;;;;;;5113652;27;20794;-89
2023/06/03 02:19:17;;;;;;;3.47;0.90;;;8.90;99.90;;;;;;5113216;27;20408;-89
2023/06/03 02:21:43;;;;;;;1.77;0.85;;;8.80;99.90;;;;;;5113533;27;20403;-89
2023/06/03 02:24:10;;;;;;;2.37;0.87;;;8.70;99.90;;;;;;5112755;27;20474;-89
2023/06/03 02:26:38;;;;;;;1.95;0.60;;;8.70;99.90;;;;;;5112475;27;20408;-89
2023/06/03 02:29:06;;;;;;;1.63;0.50;;;8.60;99.90;;;;;;5112520;27;20445;-89
2023/06/03 02:31:32;;;;;;;2.63;0.90;;;8.60;99.90;;;;;;5111654;27;20408;-89
2023/06/03 02:33:58;;;;;;;3.55;0.77;;;8.60;99.90;;;;;;5112745;27;20393;-89
2023/06/03 02:36:24;;;;;;;2.47;0.70;;;8.60;99.90;;;;;;5111900;27;20474;-89
2023/06/03 02:38:50;;;;;;;2.15;0.70;;;8.60;99.90;;;;;;5112513;27;20405;-89
2023/06/03 02:41:15;;;;;;;2.58;0.80;;;8.90;99.90;;;;;;5129190;27;20416;-89
2023/06/03 02:43:41;;;;;;;1.87;0.80;;;8.50;99.90;;;;;;5112160;27;20432;-89
2023/06/03 02:46:07;;;;;;;2.67;0.70;;;8.40;99.90;;;;;;5111697;27;20450;-89
2023/06/03 02:48:33;;;;;;;2.73;0.70;;;8.30;99.90;;;;;;5111992;27;20428;-90
2023/06/03 02:50:59;;;;;;;3.13;0.80;;;8.30;99.90;;;;;;5129098;27;20401;-88
2023/06/03 02:53:25;;;;;;;2.23;0.50;;;8.20;99.90;;;;;;5111406;27;20414;-89
2023/06/03 02:55:51;;;;;;;1.80;0.70;;;8.20;99.90;;;;;;5111850;27;20930;-88
2023/06/03 02:58:16;;;;;;;2.03;0.63;;;8.10;99.90;;;;;;5111521;27;20409;-89
2023/06/03 03:00:42;;;;;;;2.50;0.80;;;8.10;99.90;;;;;;5112168;27;20743;-89
2023/06/03 03:03:09;;;;;;;1.90;0.80;;;8.00;99.90;;;;;;5128583;27;20417;-88
2023/06/03 03:05:35;;;;;;;3.07;0.80;;;8.30;99.90;;;;;;5111557;27;20392;-87
2023/06/03 03:08:01;;;;;;;3.60;0.70;;;8.00;99.90;;;;;;5112003;27;20441;-88
2023/06/03 03:10:27;;;;;;;2.90;0.77;;;8.40;99.90;;;;;;5111485;27;20404;-89
2023/06/03 03:12:53;;;;;;;1.97;0.67;;;8.30;99.90;;;;;;5128006;27;20465;-89
2023/06/03 03:15:19;;;;;;;3.40;0.70;;;8.00;99.90;;;;;;5111088;27;20401;-88
2023/06/03 03:17:45;;;;;;;2.47;0.90;;;8.00;99.90;;;;;;5128622;27;20413;-89
2023/06/03 03:20:12;;;;;;;3.00;0.88;;;8.20;99.90;;;;;;5128722;27;20401;-89
2023/06/03 03:22:44;;;;;;;2.43;0.90;;;7.90;99.90;;;;;;5111787;27;20401;-89
2023/06/03 03:25:10;;;;;;;4.07;0.70;;;8.10;99.90;;;;;;5043141;27;1927485;-88
2023/06/03 03:27:36;;;;;;;2.63;0.77;;;7.90;99.90;;;;;;5129185;27;20890;-88
2023/06/03 03:30:03;;;;;;;3.27;0.80;;;8.10;99.90;;;;;;5129776;27;20397;-87
2023/06/03 03:32:29;;;;;;;2.83;0.77;;;8.00;99.90;;;;;;5111806;27;20424;-88
2023/06/03 03:35:21;;;;;;;2.17;0.60;;;8.10;99.90;;;;;;5112356;27;20400;-88
2023/06/03 03:37:55;;;;;;;3.30;0.80;;;8.10;99.90;;;;;;5109153;27;20512;-89
2023/06/03 03:40:22;;;;;;;3.13;0.73;;;8.10;99.90;;;;;;5112415;27;20397;-89
2023/06/03 03:42:49;;;;;;;2.17;0.63;;;8.20;99.90;;;;;;5111691;27;20932;-89
2023/06/03 03:45:17;;;;;;;3.80;0.90;;;8.20;99.90;;;;;;5111651;27;20393;-89
2023/06/03 03:47:54;;;;;;;1.98;0.70;;;8.20;99.90;;;;;;5130069;27;20396;-89
2023/06/03 03:50:41;;;;;;;4.03;0.70;;;8.70;99.90;;;;;;5111999;27;20487;-89
2023/06/03 03:53:15;;;;;;;2.42;0.50;;;8.40;99.90;;;;;;5129033;27;20413;-89
2023/06/03 03:55:47;;;;;;;3.53;0.77;;;8.40;99.90;;;;;;5112669;27;20539;-90
2023/06/03 03:58:37;;;;;;;2.67;0.80;;;8.50;99.90;;;;;;5111489;27;20432;-89
2023/06/03 04:01:15;;;;;;;3.63;0.70;;;8.50;99.90;;;;;;5112588;27;20764;-89
2023/06/03 04:03:44;;;;;;;1.80;0.70;;;8.60;99.90;;;;;;5112125;27;20417;-87
2023/06/03 04:06:11;;;;;;;3.58;0.70;;;8.60;99.90;;;;;;5112225;27;20389;-89
2023/06/03 04:08:46;;;;;;;1.85;0.60;;;8.70;99.90;;;;;;5129009;27;20463;-89
2023/06/03 04:11:23;;;;;;;2.20;0.75;;;8.70;99.90;;;;;;5112124;27;20779;-89
2023/06/03 04:13:50;;;;;;;2.43;0.80;;;8.80;99.90;;;;;;5111998;27;20463;-89
2023/06/03 04:16:41;;;;;;;3.22;0.70;;;8.80;99.90;;;;;;5111482;27;20436;-88
2023/06/03 04:19:15;;;;;;;2.45;0.70;;;8.90;99.90;;;;;;5112075;27;20971;-90
2023/06/03 04:21:41;;;;;;;3.35;0.75;;;9.00;99.90;;;;;;5112021;27;20484;-88
2023/06/03 04:24:07;;;;;;;2.47;0.70;;;9.10;99.90;;;;;;5129719;27;20474;-88
2023/06/03 04:26:36;;;;;;;3.63;0.70;;;9.20;99.90;;;;;;5115605;27;20397;-89
2023/06/03 04:29:03;;;;;;;2.22;0.75;;;9.30;99.90;;;;;;5115411;27;20910;-88
2023/06/03 04:31:28;;;;;;;1.92;0.70;;;9.60;99.90;;;;;;5132932;27;20481;-89
2023/06/03 04:33:54;;;;;;;2.80;0.60;;;9.40;99.90;;;;;;5115597;27;20440;-88
2023/06/03 04:36:20;;;;;;;2.83;0.83;;;9.50;99.90;;;;;;5115312;27;20732;-89
2023/06/03 04:38:46;;;;;;;2.05;0.70;;;9.80;99.90;;;;;;5115537;27;20405;-89
2023/06/03 04:41:12;;;;;;;2.70;0.80;;;9.70;99.90;;;;;;5114957;27;20412;-87
2023/06/03 04:43:40;;;;;;;2.42;0.80;;;10.00;99.90;;;;;;5115072;27;20485;-90
2023/06/03 04:46:07;;;;;;;3.70;0.93;;;9.90;99.90;;;;;;5114976;27;20714;-89
2023/06/03 04:48:33;;;;;;;3.42;0.80;;;10.00;99.90;;;;;;5115215;27;20445;-89
2023/06/03 04:51:01;;;;;;;2.53;0.80;;;10.20;99.90;;;;;;5115370;27;20389;-89
2023/06/03 04:53:28;;;;;;;1.85;0.70;;;10.20;99.90;;;;;;5115135;27;20424;-89
2023/06/03 04:55:53;;;;;;;3.38;1.00;;;10.30;99.90;;;;;;5115029;27;20697;-90
2023/06/03 04:58:19;;;;;;;2.10;0.70;;;10.30;99.90;;;;;;5131649;27;20405;-90
2023/06/03 05:00:48;;;;;;;2.55;1.00;;;10.30;99.90;;;;;;5115311;27;20756;-89
2023/06/03 05:03:16;;;;;;;2.57;0.73;;;10.30;99.90;;;;;;5114376;27;20417;-90
2023/06/03 05:05:43;;;;;;;3.15;0.80;;;10.40;99.90;;;;;;5115086;27;20393;-89
2023/06/03 05:08:12;;;;;;;2.92;0.80;;;10.50;99.90;;;;;;5114770;27;20397;-89
2023/06/03 05:10:38;;;;;;;2.65;0.80;;;10.60;99.90;;;;;;5115176;27;20409;-88
2023/06/03 05:13:07;;;;;;;2.80;1.00;;;10.90;99.90;;;;;;5114738;27;20820;-90
2023/06/03 05:15:34;;;;;;;2.13;0.77;;;10.90;99.90;;;;;;5114842;27;20878;-90
2023/06/03 05:18:03;;;;;;;2.97;0.75;;;11.10;99.90;;;;;;5114259;27;20921;-90
2023/06/03 05:20:31;;;;;;;1.83;0.60;;;11.30;99.90;;;;;;5114271;27;20727;-90
2023/06/03 05:22:57;;;;;;;1.90;0.85;;;11.50;99.90;;;;;;5114475;27;20730;-90
2023/06/03 05:25:23;;;;;;;2.80;0.73;;;11.70;99.90;;;;;;5114045;27;20472;-89
2023/06/03 05:27:49;;;;;;;2.90;0.60;;;11.90;99.90;;;;;;5114719;27;20609;-88
2023/06/03 05:30:15;;;;;;;2.30;0.60;;;12.00;99.90;;;;;;5114421;27;20424;-89
2023/06/03 05:32:44;;;;;;;2.55;0.55;;;12.20;99.90;;;;;;5114320;27;20492;-89
2023/06/03 05:35:10;;;;;;;3.78;0.50;;;12.80;99.90;;;;;;5113833;27;20485;-89
2023/06/03 05:37:36;;;;;;;3.57;0.60;;;12.60;99.90;;;;;;5113732;27;20435;-88
2023/06/03 05:40:01;;;;;;;2.60;0.55;;;12.80;99.90;;;;;;5114512;27;20401;-89
2023/06/03 05:42:27;;;;;;;1.98;0.30;;;12.90;99.90;;;;;;5113948;27;20397;-89
2023/06/03 05:44:53;;;;;;;1.77;0.47;;;13.20;99.90;;;;;;5114555;27;20421;-90
2023/06/03 05:47:18;;;;;;;1.87;0.40;;;13.20;99.90;;;;;;5113800;27;20496;-90
2023/06/03 05:49:44;;;;;;;2.55;0.50;;;13.40;99.90;;;;;;5113777;27;20408;-89
2023/06/03 05:52:09;;;;;;;1.70;0.33;;;13.50;99.90;;;;;;5113705;27;20397;-90
2023/06/03 05:54:35;;;;;;;2.83;0.50;;;13.60;99.90;;;;;;5113870;27;20393;-90
2023/06/03 05:57:00;;;;;;;1.73;0.50;;;13.70;99.90;;;;;;5131527;27;20415;-89
2023/06/03 05:59:26;;;;;;;3.28;0.50;;;13.90;99.90;;;;;;5113177;27;20397;-89
2023/06/03 06:01:52;;;;;;;2.50;0.60;;;14.00;99.90;;;;;;5114012;27;20397;-90
2023/06/03 06:04:17;;;;;;;2.97;0.55;;;14.10;99.30;;;;;;5113615;27;20452;-91
2023/06/03 06:06:43;;;;;;;1.87;0.40;;;14.50;99.80;;;;;;5113810;27;20397;-89
2023/06/03 06:09:09;;;;;;;2.70;0.50;;;14.40;99.10;;;;;;5113431;27;20415;-89
2023/06/03 06:11:35;;;;;;;1.75;0.43;;;14.50;97.70;;;;;;5113323;27;20495;-91
2023/06/03 06:14:00;;;;;;;2.87;0.40;;;14.50;96.70;;;;;;5114084;27;20405;-89
2023/06/03 06:16:26;;;;;;;3.00;0.40;;;14.90;98.40;;;;;;5112989;27;20393;-89
2023/06/03 06:18:51;;;;;;;2.20;0.40;;;14.90;97.80;;;;;;5113335;27;20407;-90
2023/06/03 06:21:17;;;;;;;2.50;0.70;;;14.90;95.90;;;;;;5113237;27;20401;-90
2023/06/03 06:23:43;;;;;;;1.92;0.40;;;15.20;97.10;;;;;;5113179;27;20815;-90
2023/06/03 06:26:09;;;;;;;1.67;0.40;;;15.30;94.00;;;;;;5113157;27;20399;-90
2023/06/03 06:28:35;;;;;;;2.07;0.40;;;15.50;91.30;;;;;;5113291;27;20401;-90
2023/06/03 06:31:04;;;;;;;1.30;0.40;;;15.60;90.20;;;;;;5113009;27;20393;-90
2023/06/03 06:33:32;;;;;;;1.98;0.40;;;15.80;91.40;;;;;;5112848;27;20393;-91
2023/06/03 06:36:00;;;;;;;2.27;0.30;;;16.10;80.30;;;;;;5113598;27;20397;-90
2023/06/03 06:38:26;;;;;;;2.03;0.30;;;16.30;72.60;;;;;;5112862;27;20451;-89
2023/06/03 06:40:53;;;;;;;2.47;0.30;;;16.20;73.20;;;;;;5113781;27;20737;-91
2023/06/03 06:43:25;;;;;;;2.03;0.40;;;16.40;71.20;;;;;;5112958;27;20420;-91
2023/06/03 06:45:51;;;;;;;2.08;0.47;;;16.60;70.30;;;;;;5112952;27;20392;-89
2023/06/03 06:48:17;;;;;;;1.95;0.30;;;16.90;69.50;;;;;;5113059;27;20748;-89
2023/06/03 06:50:56;;;;;;;1.15;0.30;;;17.20;66.80;;;;;;5130408;27;20389;-90
2023/06/03 06:53:27;;;;;;;1.90;0.35;;;17.20;61.60;;;;;;5113067;27;20531;-91
2023/06/03 06:56:04;;;;;;;2.28;0.40;;;17.30;63.30;;;;;;5112917;27;20453;-89
2023/06/03 06:58:38;;;;;;;3.00;0.30;;;17.60;65.50;;;;;;5113001;27;20444;-89
2023/06/03 07:01:08;;;;;;;1.83;0.30;;;17.50;61.30;;;;;;5113513;27;20428;-91
2023/06/03 07:03:35;;;;;;;2.07;0.23;;;17.40;63.00;;;;;;5112889;27;20425;-90
2023/06/03 07:06:01;;;;;;;1.92;0.30;;;17.30;60.00;;;;;;5112847;27;20714;-91
2023/06/03 07:08:27;;;;;;;1.77;0.30;;;17.20;62.50;;;;;;5112716;27;20759;-90
2023/06/03 07:10:58;;;;;;;1.63;0.50;;;17.10;63.90;;;;;;5113181;27;20392;-91
2023/06/03 07:13:24;;;;;;;2.15;0.20;;;17.20;62.80;;;;;;5112491;27;20401;-91
2023/06/03 07:15:50;;;;;;;2.05;0.30;;;16.80;63.40;;;;;;5113159;27;20782;-90
2023/06/03 07:18:16;;;;;;;3.13;0.28;;;16.80;69.60;;;;;;5112414;27;20476;-90
2023/06/03 07:20:44;;;;;;;2.72;0.30;;;16.70;69.00;;;;;;5112827;27;20397;-90
2023/06/03 07:23:21;;;;;;;2.25;0.28;;;16.70;67.00;;;;;;5113078;27;20771;-90
2023/06/03 07:25:51;;;;;;;1.80;0.20;;;16.50;73.30;;;;;;5112367;27;20392;-90
2023/06/03 07:28:33;;;;;;;2.17;0.30;;;16.50;74.80;;;;;;5113002;27;20930;-91
2023/06/03 07:31:03;;;;;;;1.50;0.30;;;16.50;71.20;;;;;;5112735;27;20756;-91
2023/06/03 07:33:33;;;;;;;1.83;0.30;;;16.40;68.90;;;;;;5112622;27;20444;-90
2023/06/03 07:36:02;;;;;;;1.70;0.30;;;16.30;76.40;;;;;;5129907;27;20799;-90
2023/06/03 07:38:37;;;;;;;2.10;0.40;;;16.50;81.70;;;;;;5112214;27;20400;-90
2023/06/03 07:41:03;;;;;;;1.50;0.20;;;16.90;81.90;;;;;;5112488;27;21008;-90
2023/06/03 07:43:29;;;;;;;1.80;0.30;;;17.00;73.10;;;;;;5111800;27;20496;-90
2023/06/03 07:45:54;;;;;;;1.20;0.25;;;17.30;69.00;;;;;;5113053;27;20863;-90
2023/06/03 07:48:20;;;;;;;3.08;0.30;;;18.00;71.40;;;;;;5112040;27;20397;-89
2023/06/03 07:50:47;;;;;;;2.80;0.30;;;17.80;65.80;;;;;;5112276;27;20899;-90
2023/06/03 07:53:22;;;;;;;1.75;0.40;;;18.20;62.20;;;;;;5129491;27;20709;-88
2023/06/03 07:55:49;;;;;;;1.88;0.40;;;18.30;57.00;;;;;;5112071;27;20425;-88
2023/06/03 07:58:17;;;;;;;2.20;0.50;;;18.40;61.30;;;;;;5112253;27;20883;-91
2023/06/03 08:00:45;;;;;;;1.55;0.30;;;18.60;58.90;;;;;;5115636;27;20437;-90
2023/06/03 08:03:22;;;;;;;1.17;0.30;;;18.80;56.30;;;;;;5116486;27;20389;-92
2023/06/03 08:05:49;;;;;;;2.88;0.30;;;18.90;57.80;;;;;;5115672;27;20412;-90
2023/06/03 08:08:17;;;;;;;1.90;0.40;;;18.90;55.10;;;;;;5115992;27;20883;-90
2023/06/03 08:10:46;;;;;;;1.00;0.30;;;18.90;53.80;;;;;;5116215;27;20400;-90
2023/06/03 08:13:13;;;;;;;1.55;0.30;;;18.90;54.80;;;;;;5115646;27;20404;-91
2023/06/03 08:15:40;;;;;;;2.13;0.30;;;18.90;52.70;;;;;;5115907;27;20405;-90
2023/06/03 08:18:09;;;;;;;2.35;0.20;;;19.40;54.40;;;;;;5115983;27;20389;-91
2023/06/03 08:20:37;;;;;;;2.45;0.38;;;19.20;54.60;;;;;;5116323;27;20492;-89
2023/06/03 08:23:03;;;;;;;1.55;0.20;;;19.50;54.00;;;;;;5132391;27;20389;-89
2023/06/03 08:25:30;;;;;;;2.15;0.20;;;19.50;52.60;;;;;;5115426;27;20408;-90
2023/06/03 08:27:56;;;;;;;1.42;0.20;;;19.60;50.20;;;;;;5115225;27;20417;-89
2023/06/03 08:30:22;;;;;;;1.77;0.20;;;19.70;48.50;;;;;;5132298;27;20431;-89
2023/06/03 08:32:49;;;;;;;1.57;0.23;;;19.80;48.00;;;;;;5115286;27;20581;-91
2023/06/03 08:35:22;;;;;;;1.25;0.20;;;20.20;48.40;;;;;;5131757;27;20402;-88
2023/06/03 08:37:48;;;;;;;0.83;0.20;;;20.00;46.60;;;;;;5115314;27;20401;-88
2023/06/03 08:40:16;;;;;;;2.90;0.40;;;20.10;47.90;;;;;;5132100;27;20484;-89
2023/06/03 08:42:44;;;;;;;2.08;0.28;;;20.20;47.00;;;;;;5115348;27;20408;-89
2023/06/03 08:45:11;;;;;;;1.15;0.20;;;20.40;45.80;;;;;;5114844;27;20953;-89
2023/06/03 08:48:05;;;;;;;1.10;0.20;;;20.30;46.00;;;;;;5115101;27;20769;-90
2023/06/03 08:50:35;;;;;;;1.58;0.20;;;20.40;46.80;;;;;;5115250;27;20409;-90
2023/06/03 08:53:08;;;;;;;1.40;0.20;;;20.50;45.40;;;;;;5114747;27;20403;-90
2023/06/03 08:55:36;;;;;;;1.10;0.20;;;20.50;44.20;;;;;;5114827;27;20432;-89
2023/06/03 08:58:31;;;;;;;2.23;0.30;;;20.60;46.50;;;;;;5132188;27;20424;-90
2023/06/03 09:01:01;;;;;;;1.45;0.20;;;20.70;44.40;;;;;;5114233;27;20439;-90
2023/06/03 09:03:27;;;;;;;2.30;0.20;;;20.70;42.20;;;;;;5114949;27;20458;-91
2023/06/03 09:05:53;;;;;;;2.33;0.20;;;20.80;42.70;;;;;;5114508;27;20393;-90
2023/06/03 09:08:20;;;;;;;2.38;0.20;;;20.90;42.90;;;;;;5114927;27;20397;-88
2023/06/03 09:10:47;;;;;;;1.35;0.20;;;20.80;42.60;;;;;;5114324;27;20408;-88
2023/06/03 09:13:16;;;;;;;1.58;0.20;;;20.90;43.30;;;;;;5114641;27;20457;-89
2023/06/03 09:15:42;;;;;;;1.70;0.15;;;20.90;44.30;;;;;;5131783;27;20770;-90
2023/06/03 09:18:08;;;;;;;1.53;0.20;;;21.10;41.50;;;;;;5130914;27;20393;-90
2023/06/03 09:20:37;;;;;;;2.00;0.17;;;21.20;42.50;;;;;;5114627;27;20751;-89
2023/06/03 09:23:03;;;;;;;6.05;0.40;;;21.30;43.30;;;;;;5114119;27;20405;-91
2023/06/03 09:25:29;;;;;;;1.90;0.22;;;21.30;41.30;;;;;;5114210;27;20449;-89
2023/06/03 09:27:55;;;;;;;1.02;0.30;;;21.70;42.40;;;;;;5113771;27;20397;-91
2023/06/03 09:30:21;;;;;;;2.23;0.40;;;21.50;42.00;;;;;;5114275;27;20405;-88
2023/06/03 09:32:47;;;;;;;1.73;0.20;;;21.50;40.10;;;;;;5114006;27;20883;-88
2023/06/03 09:35:13;;;;;;;1.80;0.20;;;21.50;40.90;;;;;;5114264;27;20497;-91
2023/06/03 09:37:48;;;;;;;2.50;0.20;;;21.70;42.30;;;;;;5114044;27;20468;-90
2023/06/03 09:40:27;;;;;;;3.30;0.30;;;21.70;41.00;;;;;;5113524;27;20425;-90
2023/06/03 09:42:52;;;;;;;1.27;0.20;;;21.90;40.70;;;;;;5130967;27;20476;-90
2023/06/03 09:45:35;;;;;;;1.70;0.30;;;22.10;41.10;;;;;;5113988;27;20569;-90
2023/06/03 09:48:01;;;;;;;0.82;0.25;;;22.10;40.60;;;;;;5114019;27;20408;-92
2023/06/03 09:50:29;;;;;;;1.40;0.20;;;22.20;39.20;;;;;;5114125;27;20393;-90
2023/06/03 09:52:55;;;;;;;1.38;0.20;;;22.30;38.70;;;;;;5113232;27;20740;-90
2023/06/03 09:55:28;;;;;;;2.67;0.20;;;22.50;39.20;;;;;;5113534;27;20911;-92
2023/06/03 09:58:06;;;;;;;1.73;0.20;;;22.60;39.00;;;;;;5130493;27;20424;-88
2023/06/03 10:00:48;;;;;;;1.77;0.20;;;22.50;38.30;;;;;;5113956;27;20853;-91
2023/06/03 10:03:14;;;;;;;2.22;0.30;;;22.60;39.60;;;;;;5113681;27;20864;-91
2023/06/03 10:05:41;;;;;;;1.42;0.20;;;22.60;35.80;;;;;;5112927;27;20472;-89
2023/06/03 10:08:07;;;;;;;0.98;0.30;;;22.60;37.50;;;;;;5113204;27;20884;-89
2023/06/03 10:10:33;;;;;;;1.50;0.20;;;22.60;37.10;;;;;;5112765;27;20393;-90
2023/06/03 10:13:19;;;;;;;0.90;0.20;;;22.90;37.20;;;;;;5113318;27;20431;-90
2023/06/03 10:15:45;;;;;;;2.00;0.20;;;23.10;36.90;;;;;;5130034;27;20480;-89
2023/06/03 10:18:10;;;;;;;1.70;0.20;;;23.20;37.80;;;;;;5112813;27;20529;-89
2023/06/03 10:20:38;;;;;;;2.10;0.20;;;23.40;39.80;;;;;;5129836;27;20436;-90
2023/06/03 10:23:07;;;;;;;1.88;0.20;;;23.50;36.70;;;;;;5112019;27;20401;-90
2023/06/03 10:25:43;;;;;;;2.27;0.30;;;23.70;38.30;;;;;;5112678;27;20401;-90
2023/06/03 10:28:10;;;;;;;2.90;0.20;;;23.80;36.40;;;;;;5129836;27;20385;-89
2023/06/03 10:30:37;;;;;;;1.70;0.20;;;24.00;37.40;;;;;;5130001;27;20473;-90
2023/06/03 10:33:04;;;;;;;1.30;0.20;;;24.40;37.80;;;;;;5112802;27;20408;-88
2023/06/03 10:35:34;;;;;;;0.93;0.20;;;24.60;34.30;;;;;;5112663;27;20906;-89
2023/06/03 10:38:01;;;;;;;1.23;0.28;;;24.60;35.50;;;;;;5112860;27;20474;-90
2023/06/03 10:40:28;;;;;;;1.38;0.25;;;24.40;34.00;;;;;;5112406;27;20725;-88
2023/06/03 10:42:55;;;;;;;1.30;0.20;;;24.90;34.50;;;;;;5112793;27;20404;-91
2023/06/03 10:45:22;;;;;;;2.42;0.20;;;25.20;36.70;;;;;;5112238;27;20502;-92
2023/06/03 10:47:52;;;;;;;1.20;0.30;;;25.70;34.20;;;;;;5112522;27;20404;-88
2023/06/03 10:50:36;;;;;;;1.35;0.20;;;25.70;35.20;;;;;;5129645;27;20480;-89
2023/06/03 10:53:33;;;;;;;2.97;0.30;;;25.90;36.00;;;;;;5112461;27;20401;-91
2023/06/03 10:56:13;;;;;;;1.15;0.22;;;26.20;35.50;;;;;;5130073;27;20859;-91
2023/06/03 10:58:42;;;;;;;1.13;0.20;;;26.50;34.40;;;;;;5129068;27;20397;-91
2023/06/03 11:01:07;;;;;;;1.92;0.20;;;26.80;34.00;;;;;;5112478;27;20401;-89
2023/06/03 11:03:54;;;;;;;1.40;0.20;;;27.00;31.00;;;;;;5112417;27;20424;-90
2023/06/03 11:06:23;;;;;;;2.10;0.20;;;27.20;31.40;;;;;;5111914;27;20421;-89
2023/06/03 11:09:05;;;;;;;3.22;0.20;;;27.20;29.70;;;;;;5112178;27;20795;-90
2023/06/03 11:11:40;;;;;;;1.63;0.20;;;27.30;32.40;;;;;;5112046;27;20741;-90
2023/06/03 11:14:07;;;;;;;2.42;0.20;;;27.40;30.50;;;;;;5112597;27;20978;-87
2023/06/03 11:16:57;;;;;;;2.38;0.20;;;27.90;31.70;;;;;;5111686;27;20430;-89
2023/06/03 11:19:40;;;;;;;0.90;0.20;;;27.90;30.00;;;;;;5111915;27;20493;-90
2023/06/03 11:22:07;;;;;;;1.42;0.20;;;28.10;30.00;;;;;;5112203;27;20452;-90
2023/06/03 11:24:39;;;;;;;2.38;0.20;;;28.10;30.10;;;;;;5111440;27;20417;-89
2023/06/03 11:27:12;;;;;;;2.17;0.20;;;28.10;31.60;;;;;;5112815;27;20780;-90
2023/06/03 11:29:51;;;;;;;0.95;0.20;;;28.10;29.70;;;;;;5129099;27;20474;-89
2023/06/03 11:32:24;;;;;;;1.20;0.20;;;28.00;31.40;;;;;;5129547;27;20409;-91
2023/06/03 11:35:03;;;;;;;0.90;0.20;;;28.20;31.90;;;;;;5114521;27;20428;-90
2023/06/03 11:37:44;;;;;;;1.20;0.20;;;28.40;30.70;;;;;;5116159;27;20401;-90
2023/06/03 11:40:14;;;;;;;2.08;0.20;;;28.60;28.70;;;;;;5133594;27;20508;-90
2023/06/03 11:42:49;;;;;;;1.83;0.22;;;28.60;30.60;;;;;;5116222;27;20401;-90
2023/06/03 11:45:29;;;;;;;2.00;0.20;;;28.60;28.60;;;;;;5115384;27;20424;-90
2023/06/03 11:48:05;;;;;;;0.93;0.20;;;28.90;30.40;;;;;;5133460;27;20783;-89
2023/06/03 11:50:53;;;;;;;1.80;0.30;;;29.10;30.00;;;;;;5115750;27;20396;-89
2023/06/03 11:53:36;;;;;;;2.03;0.28;;;29.10;29.00;;;;;;5115919;27;20484;-90
2023/06/03 11:56:10;;;;;;;1.15;0.30;;;29.20;29.60;;;;;;5132760;27;20393;-91
2023/06/03 11:58:37;;;;;;;2.00;0.30;;;29.10;28.50;;;;;;5115457;27;20400;-92
2023/06/03 12:01:17;;;;;;;1.17;0.20;;;29.00;28.50;;;;;;5133107;27;20393;-91
2023/06/03 12:04:00;;;;;;;2.05;0.35;;;29.10;28.80;;;;;;5132475;27;20428;-90
2023/06/03 12:06:36;;;;;;;3.05;0.20;;;29.20;29.70;;;;;;5115557;27;20397;-90
2023/06/03 12:09:01;;;;;;;1.80;0.30;;;29.40;32.40;;;;;;5151300;27;20385;-90
2023/06/03 12:11:33;;;;;;;1.35;0.10;;;29.70;28.40;;;;;;5115191;27;20463;-88
2023/06/03 12:13:59;;;;;;;2.03;0.20;;;29.90;29.60;;;;;;5132485;27;20922;-89
2023/06/03 12:16:31;;;;;;;0.50;0.13;;;30.00;27.70;;;;;;5114846;27;20389;-89
2023/06/03 12:19:01;;;;;;;0.95;0.30;;;30.00;28.80;;;;;;5115573;27;20416;-89
2023/06/03 12:21:27;;;;;;;2.47;0.30;;;30.00;29.10;;;;;;5151911;27;20725;-90
2023/06/03 12:23:53;;;;;;;1.88;0.28;;;30.00;28.00;;;;;;5132078;27;20424;-91
2023/06/03 12:26:19;;;;;;;2.07;0.20;;;30.20;28.90;;;;;;5115275;27;20397;-90
2023/06/03 12:28:46;;;;;;;1.50;0.30;;;30.10;28.90;;;;;;5131760;27;20408;-91
2023/06/03 12:31:16;;;;;;;1.00;0.20;;;29.80;27.50;;;;;;5115645;27;20397;-90
2023/06/03 12:33:43;;;;;;;0.90;0.20;;;29.70;27.00;;;;;;5114883;27;20782;-92
2023/06/03 12:36:10;;;;;;;2.78;0.30;;;29.90;29.30;;;;;;5115579;27;20579;-90
2023/06/03 12:38:54;;;;;;;2.30;0.20;;;29.90;28.10;;;;;;5114815;27;20934;-88
2023/06/03 12:41:20;;;;;;;1.87;0.30;;;29.70;27.10;;;;;;5114606;27;20439;-91
2023/06/03 12:43:46;;;;;;;1.88;0.20;;;29.60;28.90;;;;;;5115125;27;20420;-91
2023/06/03 12:46:19;;;;;;;1.30;0.30;;;29.60;28.20;;;;;;5113258;27;20763;-92
2023/06/03 12:48:45;;;;;;;1.50;0.30;;;30.00;29.40;;;;;;5131660;27;20428;-90
2023/06/03 12:51:24;;;;;;;1.92;0.30;;;29.90;28.80;;;;;;5114493;27;20397;-91
2023/06/03 12:53:55;;;;;;;1.63;0.20;;;30.00;29.80;;;;;;5114598;27;20412;-90
2023/06/03 12:56:24;;;;;;;1.90;0.30;;;30.10;27.30;;;;;;5114731;27;20989;-91
2023/06/03 12:58:56;;;;;;;2.80;0.30;;;30.20;29.90;;;;;;5131232;27;20954;-91
2023/06/03 13:01:22;;;;;;;1.30;0.20;;;30.30;28.30;;;;;;5132050;27;20879;-91